createdAt,value
2022-12-09T00:01:28.428Z,3.10
2022-12-09T00:03:56.488Z,2.90
2022-12-09T00:06:28.310Z,2.90
2022-12-09T00:08:58.027Z,2.80
2022-12-09T00:11:26.627Z,3.10
2022-12-09T00:13:57.458Z,2.80
2022-12-09T00:16:27.565Z,2.80
2022-12-09T00:18:54.776Z,2.50
2022-12-09T00:21:29.248Z,3.00
2022-12-09T00:24:02.049Z,2.40
2022-12-09T00:26:29.548Z,2.70
2022-12-09T00:28:58.676Z,2.40
2022-12-09T00:31:30.905Z,2.70
2022-12-09T00:34:04.535Z,2.80
2022-12-09T00:36:31.886Z,2.70
2022-12-09T00:39:00.097Z,2.70
2022-12-09T00:41:29.399Z,2.90
2022-12-09T00:43:57.843Z,2.90
2022-12-09T00:46:25.260Z,2.80
2022-12-09T00:48:53.001Z,2.70
2022-12-09T00:51:24.881Z,2.50
2022-12-09T00:53:54.973Z,2.90
2022-12-09T00:56:25.420Z,2.90
2022-12-09T00:58:53.255Z,2.40
2022-12-09T01:01:21.173Z,2.70
2022-12-09T01:03:48.810Z,2.80
2022-12-09T01:06:21.116Z,2.60
2022-12-09T01:08:48.302Z,2.70
2022-12-09T01:11:28.851Z,2.60
2022-12-09T01:14:01.476Z,2.80
2022-12-09T01:16:33.453Z,2.60
2022-12-09T01:19:05.867Z,2.60
2022-12-09T01:21:34.326Z,2.60
2022-12-09T01:24:06.124Z,2.60
2022-12-09T01:26:33.330Z,2.40
2022-12-09T01:29:00.419Z,2.90
2022-12-09T01:31:27.535Z,2.40
2022-12-09T01:33:56.906Z,2.30
2022-12-09T01:36:29.995Z,2.60
2022-12-09T01:39:00.002Z,2.40
2022-12-09T01:41:28.702Z,2.80
2022-12-09T01:44:15.693Z,2.60
2022-12-09T01:46:43.870Z,2.60
2022-12-09T01:49:19.181Z,2.30
2022-12-09T01:51:56.307Z,2.70
2022-12-09T01:54:23.641Z,2.80
2022-12-09T01:56:51.667Z,2.60
2022-12-09T01:59:18.859Z,2.50
2022-12-09T02:01:51.458Z,2.50
2022-12-09T02:04:18.889Z,2.50
2022-12-09T02:06:46.497Z,2.50
2022-12-09T02:09:13.867Z,2.20
2022-12-09T02:12:22.833Z,2.50
2022-12-09T02:15:01.480Z,2.30
2022-12-09T02:17:54.552Z,2.20
2022-12-09T02:20:37.329Z,2.70
2022-12-09T02:23:51.064Z,2.70
2022-12-09T02:26:46.842Z,2.50
2022-12-09T02:30:01.896Z,2.40
2022-12-09T02:32:40.681Z,2.40
2022-12-09T02:35:22.116Z,2.70
2022-12-09T02:37:55.915Z,2.40
2022-12-09T02:40:45.133Z,2.50
2022-12-09T02:43:14.368Z,2.40
2022-12-09T02:45:44.698Z,2.50
2022-12-09T02:48:18.415Z,2.50
2022-12-09T02:50:49.503Z,2.40
2022-12-09T02:53:18.513Z,2.40
2022-12-09T02:55:49.738Z,2.70
2022-12-09T02:58:16.847Z,2.60
2022-12-09T03:00:44.277Z,2.60
2022-12-09T03:03:17.685Z,2.60
2022-12-09T03:06:00.303Z,2.50
2022-12-09T03:08:42.858Z,2.70
2022-12-09T03:11:25.078Z,2.50
2022-12-09T03:14:15.192Z,2.80
2022-12-09T03:16:55.372Z,2.30
2022-12-09T03:19:36.406Z,2.80
2022-12-09T03:22:17.324Z,2.50
2022-12-09T03:25:00.022Z,2.30
2022-12-09T03:27:35.198Z,2.60
2022-12-09T03:30:06.742Z,2.70
2022-12-09T03:32:36.999Z,2.50
2022-12-09T03:35:10.893Z,2.90
2022-12-09T03:37:42.708Z,2.60
2022-12-09T03:40:16.335Z,2.70
2022-12-09T03:42:56.575Z,2.60
2022-12-09T03:45:24.988Z,2.60
2022-12-09T03:47:52.946Z,2.60
2022-12-09T03:50:25.176Z,2.50
2022-12-09T03:53:06.873Z,2.60
2022-12-09T03:55:38.950Z,2.60
2022-12-09T03:58:08.923Z,2.50
2022-12-09T04:00:38.157Z,2.60
2022-12-09T04:03:07.681Z,2.70
2022-12-09T04:05:35.030Z,2.80
2022-12-09T04:08:02.195Z,2.60
2022-12-09T04:10:29.698Z,2.60
2022-12-09T04:12:57.172Z,2.60
2022-12-09T04:15:24.296Z,2.60
2022-12-09T04:17:51.615Z,2.70
2022-12-09T04:20:18.848Z,2.70
2022-12-09T04:22:45.849Z,2.70
2022-12-09T04:25:13.340Z,2.70
2022-12-09T04:27:40.472Z,2.90
2022-12-09T04:30:09.119Z,2.70
2022-12-09T04:32:37.253Z,2.80
2022-12-09T04:35:04.905Z,2.70
2022-12-09T04:37:33.386Z,2.80
2022-12-09T04:40:00.425Z,2.80
2022-12-09T04:42:29.809Z,2.80
2022-12-09T04:44:56.757Z,2.80
2022-12-09T04:47:23.816Z,2.70
2022-12-09T04:49:51.005Z,2.80
2022-12-09T04:52:19.851Z,2.70
2022-12-09T04:54:48.801Z,2.70
2022-12-09T04:57:18.512Z,2.70
2022-12-09T04:59:45.903Z,2.70
2022-12-09T05:02:13.559Z,2.70
2022-12-09T05:04:43.004Z,2.70
2022-12-09T05:07:11.908Z,2.70
2022-12-09T05:09:39.197Z,2.70
2022-12-09T05:12:07.028Z,2.70
2022-12-09T05:14:34.486Z,2.80
2022-12-09T05:17:03.809Z,2.80
2022-12-09T05:19:31.073Z,2.90
2022-12-09T05:21:58.149Z,2.70
2022-12-09T05:24:25.465Z,2.80
2022-12-09T05:26:53.097Z,2.90
2022-12-09T05:29:23.025Z,2.90
2022-12-09T05:31:53.469Z,2.80
2022-12-09T05:34:21.241Z,2.70
2022-12-09T05:36:48.660Z,2.70
2022-12-09T05:39:15.888Z,2.70
2022-12-09T05:41:43.646Z,2.90
2022-12-09T05:44:15.259Z,2.90
2022-12-09T05:46:42.710Z,2.90
2022-12-09T05:49:10.328Z,3.00
2022-12-09T05:51:37.440Z,3.00
2022-12-09T05:54:06.643Z,2.90
2022-12-09T05:56:33.937Z,2.90
2022-12-09T05:59:01.501Z,2.80
2022-12-09T06:01:28.737Z,2.80
2022-12-09T06:03:56.683Z,2.80
2022-12-09T06:06:28.041Z,3.00
2022-12-09T06:09:02.086Z,2.50
2022-12-09T06:11:30.393Z,2.90
2022-12-09T06:13:57.733Z,2.80
2022-12-09T06:16:26.184Z,2.80
2022-12-09T06:18:53.582Z,2.90
2022-12-09T06:21:22.945Z,2.80
2022-12-09T06:23:51.577Z,3.10
2022-12-09T06:26:26.875Z,2.90
2022-12-09T06:28:56.056Z,2.90
2022-12-09T06:31:24.204Z,3.00
2022-12-09T06:33:55.513Z,2.80
2022-12-09T06:36:25.924Z,2.90
2022-12-09T06:38:55.365Z,2.90
2022-12-09T06:41:23.855Z,3.20
2022-12-09T06:43:51.630Z,2.90
2022-12-09T06:46:26.242Z,3.20
2022-12-09T06:48:56.145Z,2.90
2022-12-09T06:51:25.620Z,3.10
2022-12-09T06:53:54.352Z,3.10
2022-12-09T06:56:23.146Z,3.20
2022-12-09T06:58:51.502Z,2.90
2022-12-09T07:01:25.925Z,3.20
2022-12-09T07:03:57.139Z,3.20
2022-12-09T07:06:35.436Z,3.40
2022-12-09T07:09:14.762Z,3.30
2022-12-09T07:11:43.258Z,3.30
2022-12-09T07:14:10.958Z,3.30
2022-12-09T07:16:39.667Z,3.50
2022-12-09T07:19:07.899Z,3.60
2022-12-09T07:21:35.209Z,3.30
2022-12-09T07:24:03.896Z,3.30
2022-12-09T07:26:33.874Z,3.30
2022-12-09T07:29:08.673Z,3.40
2022-12-09T07:31:36.578Z,3.50
2022-12-09T07:34:05.790Z,3.60
2022-12-09T07:36:35.872Z,3.20
2022-12-09T07:39:08.463Z,3.40
2022-12-09T07:41:36.059Z,3.50
2022-12-09T07:44:03.612Z,3.50
2022-12-09T07:46:31.542Z,3.80
2022-12-09T07:48:59.580Z,3.60
2022-12-09T07:51:26.994Z,3.70
2022-12-09T07:53:56.394Z,3.70
2022-12-09T07:56:24.848Z,3.80
2022-12-09T07:58:54.198Z,3.80
2022-12-09T08:01:25.494Z,3.50
2022-12-09T08:03:54.642Z,3.60
2022-12-09T08:06:26.242Z,4.10
2022-12-09T08:08:54.993Z,3.80
2022-12-09T08:11:26.522Z,4.20
2022-12-09T08:13:57.055Z,4.00
2022-12-09T08:16:25.851Z,3.90
2022-12-09T08:18:55.513Z,3.80
2022-12-09T08:21:29.932Z,4.30
2022-12-09T08:24:00.679Z,4.30
2022-12-09T08:26:31.612Z,4.20
2022-12-09T08:28:59.214Z,4.00
2022-12-09T08:31:28.528Z,4.10
2022-12-09T08:33:57.035Z,4.20
2022-12-09T08:36:27.587Z,4.10
2022-12-09T08:38:58.240Z,4.20
2022-12-09T08:41:38.919Z,4.30
2022-12-09T08:44:17.618Z,4.30
2022-12-09T08:46:51.047Z,4.30
2022-12-09T08:49:22.041Z,4.40
2022-12-09T08:51:52.552Z,4.60
2022-12-09T08:54:20.022Z,4.50
2022-12-09T08:56:52.186Z,4.60
2022-12-09T08:59:19.463Z,4.60
2022-12-09T09:01:47.669Z,5.00
2022-12-09T09:04:19.364Z,4.70
2022-12-09T09:06:50.602Z,4.80
2022-12-09T09:09:20.174Z,4.80
2022-12-09T09:11:48.071Z,4.80
2022-12-09T09:14:15.942Z,4.90
2022-12-09T09:16:45.517Z,4.80
2022-12-09T09:19:20.860Z,4.70
2022-12-09T09:21:49.770Z,4.80
2022-12-09T09:24:20.789Z,4.80
2022-12-09T09:26:50.950Z,5.30
2022-12-09T09:29:21.334Z,4.80
2022-12-09T09:31:50.382Z,5.30
2022-12-09T09:34:19.219Z,4.90
2022-12-09T09:36:47.655Z,5.30
2022-12-09T09:39:15.280Z,5.10
2022-12-09T09:42:08.187Z,5.10
2022-12-09T09:44:47.153Z,5.00
2022-12-09T09:47:40.059Z,5.00
2022-12-09T09:50:36.084Z,5.00
2022-12-09T09:53:35.625Z,5.00
2022-12-09T09:56:29.300Z,4.60
2022-12-09T09:59:54.284Z,4.80
2022-12-09T10:02:59.684Z,4.50
2022-12-09T10:05:35.883Z,4.70
2022-12-09T10:08:56.109Z,4.70
2022-12-09T10:11:33.119Z,4.70
2022-12-09T10:14:14.358Z,4.60
2022-12-09T10:17:36.400Z,4.70
2022-12-09T10:20:29.696Z,5.00
2022-12-09T10:23:01.410Z,4.60
2022-12-09T10:25:33.769Z,4.80
2022-12-09T10:28:24.741Z,4.60
2022-12-09T10:30:55.459Z,4.40
2022-12-09T10:33:34.359Z,4.90
2022-12-09T10:36:02.840Z,4.70
2022-12-09T10:38:36.385Z,4.70
2022-12-09T10:42:00.572Z,4.50
2022-12-09T10:44:28.357Z,4.60
2022-12-09T10:47:08.045Z,4.80
2022-12-09T10:49:43.089Z,4.50
2022-12-09T10:52:11.274Z,4.50
2022-12-09T10:54:45.669Z,4.60
2022-12-09T10:57:12.907Z,4.60
2022-12-09T10:59:58.496Z,4.90
2022-12-09T11:02:32.217Z,4.80
2022-12-09T11:05:24.526Z,4.60
2022-12-09T11:07:56.613Z,4.90
2022-12-09T11:10:30.816Z,4.80
2022-12-09T11:13:18.200Z,4.80
2022-12-09T11:15:54.538Z,5.00
2022-12-09T11:18:37.426Z,4.50
2022-12-09T11:21:26.730Z,4.70
2022-12-09T11:24:02.964Z,5.00
2022-12-09T11:26:43.293Z,4.70
2022-12-09T11:29:19.446Z,4.70
2022-12-09T11:31:47.568Z,5.00
2022-12-09T11:34:29.941Z,4.70
2022-12-09T11:36:59.695Z,4.70
2022-12-09T11:39:37.832Z,4.90
2022-12-09T11:42:20.808Z,4.80
2022-12-09T11:44:56.925Z,4.80
2022-12-09T11:48:21.588Z,4.80
2022-12-09T11:50:37.068Z,4.80
2022-12-09T11:53:30.637Z,4.80
2022-12-09T11:56:27.886Z,4.70
2022-12-09T11:59:17.938Z,4.70
2022-12-09T12:02:32.199Z,4.60
2022-12-09T12:05:21.889Z,4.40
2022-12-09T12:08:32.317Z,4.70
2022-12-09T12:11:15.900Z,4.70
2022-12-09T12:14:12.800Z,4.60
2022-12-09T12:17:09.286Z,4.60
2022-12-09T12:19:45.523Z,4.80
2022-12-09T12:23:08.287Z,4.60
2022-12-09T12:26:12.181Z,4.60
2022-12-09T12:29:22.677Z,4.60
2022-12-09T12:32:13.648Z,4.60
2022-12-09T12:35:07.759Z,4.50
2022-12-09T12:38:29.441Z,4.60
2022-12-09T12:41:52.634Z,4.70
2022-12-09T12:45:30.768Z,4.70
2022-12-09T12:48:40.107Z,4.70
2022-12-09T12:51:25.310Z,4.80
2022-12-09T12:54:18.189Z,4.10
2022-12-09T12:56:47.747Z,4.40
2022-12-09T12:59:30.056Z,4.20
2022-12-09T13:02:38.235Z,4.20
2022-12-09T13:05:27.780Z,4.20
2022-12-09T13:08:16.859Z,4.30
2022-12-09T13:10:52.203Z,4.30
2022-12-09T13:13:27.132Z,4.40
2022-12-09T13:16:05.020Z,4.10
2022-12-09T13:18:38.891Z,4.00
2022-12-09T13:21:08.598Z,4.00
2022-12-09T13:24:21.675Z,4.00
2022-12-09T13:27:05.197Z,3.90
2022-12-09T13:29:59.545Z,3.80
2022-12-09T13:33:09.825Z,3.70
2022-12-09T13:36:17.175Z,3.70
2022-12-09T13:38:44.548Z,3.40
2022-12-09T13:41:26.982Z,3.50
2022-12-09T13:44:12.160Z,3.50
2022-12-09T13:46:39.909Z,3.20
2022-12-09T13:49:19.950Z,3.20
2022-12-09T13:51:52.671Z,3.20
2022-12-09T13:54:25.166Z,3.10
2022-12-09T13:57:13.531Z,3.20
2022-12-09T13:59:51.224Z,3.10
2022-12-09T14:02:42.320Z,3.10
2022-12-09T14:05:18.999Z,3.00
2022-12-09T14:07:56.855Z,3.00
2022-12-09T14:10:37.872Z,3.10
2022-12-09T14:13:25.293Z,3.00
2022-12-09T14:16:34.157Z,3.20
2022-12-09T14:19:26.188Z,3.20
2022-12-09T14:22:18.528Z,3.20
2022-12-09T14:25:28.403Z,3.20
2022-12-09T14:28:10.892Z,3.10
2022-12-09T14:30:50.167Z,3.10
2022-12-09T14:33:34.807Z,3.10
2022-12-09T14:36:15.935Z,2.80
2022-12-09T14:39:23.597Z,2.90
2022-12-09T14:42:20.648Z,3.00
2022-12-09T14:45:57.836Z,3.30
2022-12-09T14:48:32.105Z,3.10
2022-12-09T14:51:22.331Z,3.10
2022-12-09T14:54:00.540Z,3.10
2022-12-09T14:56:30.927Z,3.10
2022-12-09T14:59:18.499Z,3.20
2022-12-09T15:02:02.900Z,3.10
2022-12-09T15:04:42.931Z,3.20
2022-12-09T15:07:27.939Z,3.20
2022-12-09T15:10:04.175Z,3.20
2022-12-09T15:12:42.542Z,3.20
2022-12-09T15:15:24.919Z,3.20
2022-12-09T15:18:06.667Z,3.20
2022-12-09T15:20:39.285Z,3.10
2022-12-09T15:23:41.403Z,3.20
2022-12-09T15:26:26.914Z,3.50
2022-12-09T15:28:56.824Z,3.30
2022-12-09T15:31:27.893Z,3.30
2022-12-09T15:34:01.532Z,3.30
2022-12-09T15:36:41.091Z,3.30
2022-12-09T15:39:25.762Z,3.30
2022-12-09T15:42:08.828Z,3.30
2022-12-09T15:44:58.320Z,3.40
2022-12-09T15:47:51.932Z,3.60
2022-12-09T15:50:56.785Z,3.40
2022-12-09T15:53:35.980Z,3.40
2022-12-09T15:56:37.920Z,3.60
2022-12-09T15:59:20.238Z,3.50
2022-12-09T16:01:57.990Z,3.40
2022-12-09T16:04:43.742Z,3.40
2022-12-09T16:07:18.681Z,3.40
2022-12-09T16:10:17.826Z,3.30
2022-12-09T16:12:55.058Z,3.30
2022-12-09T16:15:55.548Z,3.30
2022-12-09T16:18:49.447Z,3.30
2022-12-09T16:21:36.825Z,3.30
2022-12-09T16:24:13.302Z,3.30
2022-12-09T16:26:53.542Z,3.40
2022-12-09T16:29:55.301Z,3.40
2022-12-09T16:32:34.087Z,3.30
2022-12-09T16:35:18.082Z,3.60
2022-12-09T16:37:57.726Z,3.40
2022-12-09T16:40:24.939Z,3.50
2022-12-09T16:43:16.529Z,3.40
2022-12-09T16:45:47.316Z,3.40
2022-12-09T16:48:14.598Z,3.40
2022-12-09T16:51:13.651Z,3.40
2022-12-09T16:53:47.925Z,3.40
2022-12-09T16:56:27.588Z,3.30
2022-12-09T16:58:56.079Z,3.40
2022-12-09T17:01:29.558Z,3.40
2022-12-09T17:04:01.725Z,3.10
2022-12-09T17:06:31.785Z,3.50
2022-12-09T17:08:59.291Z,3.50
2022-12-09T17:11:29.225Z,3.60
2022-12-09T17:13:56.686Z,3.40
2022-12-09T17:16:25.906Z,3.70
2022-12-09T17:18:53.134Z,3.60
2022-12-09T17:21:20.423Z,3.50
2022-12-09T17:23:47.711Z,3.70
2022-12-09T17:26:18.605Z,3.70
2022-12-09T17:28:48.011Z,3.60
2022-12-09T17:31:20.677Z,3.50
2022-12-09T17:33:52.466Z,3.60
2022-12-09T17:36:19.624Z,3.30
2022-12-09T17:38:47.818Z,3.90
2022-12-09T17:41:20.584Z,3.60
2022-12-09T17:43:50.770Z,3.70
2022-12-09T17:46:18.340Z,3.50
2022-12-09T17:48:49.213Z,3.60
2022-12-09T17:54:05.173Z,3.80
2022-12-09T17:56:34.965Z,3.70
2022-12-09T17:59:12.911Z,3.80
2022-12-09T18:01:41.172Z,4.00
2022-12-09T18:04:10.498Z,3.50
2022-12-09T18:06:41.292Z,3.80
2022-12-09T18:09:12.591Z,3.80
2022-12-09T18:11:40.517Z,4.00
2022-12-09T18:14:09.902Z,3.90
2022-12-09T18:16:37.743Z,3.70
2022-12-09T18:19:13.149Z,3.90
2022-12-09T18:21:40.348Z,3.80
2022-12-09T18:24:08.122Z,3.60
2022-12-09T18:26:41.611Z,4.00
2022-12-09T18:29:11.151Z,4.00
2022-12-09T18:31:39.300Z,4.10
2022-12-09T18:34:07.026Z,4.10
2022-12-09T18:36:36.632Z,3.80
2022-12-09T18:39:05.248Z,4.00
2022-12-09T18:41:35.989Z,3.80
2022-12-09T18:44:06.098Z,3.60
2022-12-09T18:46:37.811Z,3.50
2022-12-09T18:49:17.589Z,3.80
2022-12-09T18:51:46.843Z,3.90
2022-12-09T18:54:23.465Z,4.00
2022-12-09T18:56:51.576Z,3.80
2022-12-09T18:59:22.166Z,3.80
2022-12-09T19:01:49.912Z,4.00
2022-12-09T19:04:24.481Z,3.80
2022-12-09T19:06:54.756Z,4.00
2022-12-09T19:09:25.951Z,3.80
2022-12-09T19:11:53.642Z,4.00
2022-12-09T19:14:23.352Z,4.00
2022-12-09T19:16:52.670Z,3.80
2022-12-09T19:19:24.541Z,3.90
2022-12-09T19:21:53.029Z,3.80
2022-12-09T19:24:28.122Z,3.80
2022-12-09T19:26:57.868Z,3.50
2022-12-09T19:32:36.432Z,3.80
2022-12-09T19:34:59.084Z,4.00
2022-12-09T19:37:26.195Z,3.80
2022-12-09T19:39:53.243Z,3.80
2022-12-09T19:42:20.423Z,3.80
2022-12-09T19:45:01.425Z,3.80
2022-12-09T19:47:29.576Z,4.00
2022-12-09T19:49:56.560Z,3.80
2022-12-09T19:52:23.594Z,3.90
2022-12-09T19:54:50.683Z,3.80
2022-12-09T19:57:17.614Z,3.50
2022-12-09T19:59:44.653Z,3.60
2022-12-09T20:02:13.970Z,4.10
2022-12-09T20:04:50.168Z,3.80
2022-12-09T20:07:20.849Z,3.90
2022-12-09T20:09:48.261Z,4.00
2022-12-09T20:12:15.935Z,3.90
2022-12-09T20:14:43.274Z,4.00
2022-12-09T20:17:10.761Z,3.90
2022-12-09T20:19:37.763Z,4.00
2022-12-09T20:22:05.976Z,4.00
2022-12-09T20:24:36.105Z,3.90
2022-12-09T20:27:03.155Z,4.00
2022-12-09T20:29:36.916Z,3.80
2022-12-09T20:32:05.571Z,4.00
2022-12-09T20:34:32.631Z,3.90
2022-12-09T20:36:59.773Z,4.00
2022-12-09T20:39:26.917Z,3.90
2022-12-09T20:41:53.943Z,4.20
2022-12-09T20:44:20.924Z,3.90
2022-12-09T20:46:52.935Z,4.00
2022-12-09T20:49:26.612Z,3.90
2022-12-09T20:51:54.362Z,3.60
2022-12-09T20:54:24.908Z,3.70
2022-12-09T20:56:53.207Z,3.90
2022-12-09T20:59:25.085Z,3.90
2022-12-09T21:01:58.007Z,3.90
2022-12-09T21:04:28.331Z,4.10
2022-12-09T21:06:55.414Z,3.80
2022-12-09T21:09:25.917Z,4.00
2022-12-09T21:11:53.931Z,3.70
2022-12-09T21:14:21.247Z,3.80
2022-12-09T21:16:50.716Z,4.00
2022-12-09T21:19:26.808Z,3.70
2022-12-09T21:21:54.538Z,3.80
2022-12-09T21:24:24.433Z,3.80
2022-12-09T21:26:56.231Z,4.00
2022-12-09T21:29:31.184Z,4.00
2022-12-09T21:31:58.780Z,3.90
2022-12-09T21:34:26.095Z,3.90
2022-12-09T21:36:53.541Z,3.70
2022-12-09T21:39:21.128Z,3.80
2022-12-09T21:41:48.346Z,4.00
2022-12-09T21:44:19.441Z,3.90
2022-12-09T21:46:46.769Z,4.00
2022-12-09T21:49:14.827Z,4.00
2022-12-09T21:51:42.647Z,3.90
2022-12-09T21:54:10.011Z,4.00
2022-12-09T21:56:37.975Z,3.60
2022-12-09T21:59:07.412Z,3.90
2022-12-09T22:01:41.164Z,3.90
2022-12-09T22:04:15.276Z,4.10
2022-12-09T22:06:49.665Z,4.00
2022-12-09T22:09:20.710Z,3.90
2022-12-09T22:11:47.914Z,3.80
2022-12-09T22:14:15.058Z,4.10
2022-12-09T22:16:44.729Z,4.10
2022-12-09T22:19:17.670Z,4.00
2022-12-09T22:21:44.748Z,3.80
2022-12-09T22:24:13.103Z,3.90
2022-12-09T22:26:43.428Z,3.70
2022-12-09T22:29:13.917Z,4.00
2022-12-09T22:31:42.550Z,3.80
2022-12-09T22:34:19.919Z,3.90
2022-12-09T22:36:49.423Z,4.00
2022-12-09T22:39:21.628Z,3.90
2022-12-09T22:41:48.918Z,3.90
2022-12-09T22:44:21.223Z,3.80
2022-12-09T22:46:48.852Z,3.90
2022-12-09T22:49:17.392Z,3.90
2022-12-09T22:51:46.050Z,3.90
2022-12-09T22:54:13.916Z,3.90
2022-12-09T22:56:43.459Z,4.20
2022-12-09T22:59:12.326Z,3.80
2022-12-09T23:01:39.454Z,3.80
2022-12-09T23:04:08.291Z,3.90
2022-12-09T23:06:38.414Z,3.80
2022-12-09T23:09:14.465Z,3.80
2022-12-09T23:11:41.939Z,4.00
2022-12-09T23:14:09.059Z,3.90
2022-12-09T23:16:36.162Z,4.00
2022-12-09T23:19:04.048Z,3.70
2022-12-09T23:21:35.153Z,3.90
2022-12-09T23:24:09.741Z,3.90
2022-12-09T23:26:39.694Z,4.00
2022-12-09T23:29:12.576Z,4.00
2022-12-09T23:31:39.845Z,3.90
2022-12-09T23:34:09.266Z,4.00
2022-12-09T23:36:45.749Z,3.80
2022-12-09T23:39:24.896Z,4.10
2022-12-09T23:41:58.203Z,4.00
2022-12-09T23:44:29.082Z,4.30
2022-12-09T23:46:59.849Z,4.00
2022-12-09T23:49:27.111Z,4.10
2022-12-09T23:51:55.291Z,4.10
2022-12-09T23:54:24.717Z,4.00
2022-12-09T23:56:51.751Z,4.00
2022-12-09T23:59:22.343Z,4.30
